createdAt,value
2023-03-24T00:14:02.695Z,5.90
2023-03-24T00:29:07.454Z,6.10
2023-03-24T00:44:17.798Z,6.10
2023-03-24T00:59:21.410Z,5.40
2023-03-24T01:14:24.267Z,5.70
2023-03-24T01:59:45.335Z,4.30
2023-03-24T02:14:48.395Z,4.30
2023-03-24T02:30:12.508Z,4.50
2023-03-24T02:45:33.870Z,4.60
2023-03-24T03:00:47.861Z,4.20
2023-03-24T03:15:56.084Z,3.50
2023-03-24T03:31:07.090Z,3.90
2023-03-24T03:46:09.732Z,3.70
2023-03-24T04:01:18.772Z,3.30
2023-03-24T04:16:37.100Z,4.30
2023-03-24T04:32:09.154Z,4.30
2023-03-24T04:47:12.761Z,4.10
2023-03-24T05:02:15.628Z,4.30
2023-03-24T05:17:18.626Z,3.60
2023-03-24T05:47:27.381Z,3.70
2023-03-24T06:02:30.323Z,4.10
2023-03-24T06:17:33.894Z,6.20
2023-03-24T06:32:36.653Z,4.00
2023-03-24T06:47:39.512Z,3.90
2023-03-24T07:02:42.866Z,4.60
2023-03-24T07:17:46.175Z,5.00
2023-03-24T07:32:49.326Z,5.30
2023-03-24T07:47:52.370Z,4.60
2023-03-24T08:02:55.796Z,4.60
2023-03-24T08:17:58.679Z,4.50
2023-03-24T08:33:02.976Z,4.30
2023-03-24T08:48:08.120Z,4.10
2023-03-24T09:03:14.563Z,3.90
2023-03-24T09:18:18.526Z,3.10
2023-03-24T09:33:21.231Z,3.80
2023-03-24T09:48:46.223Z,2.80
2023-03-24T10:03:49.005Z,2.80
2023-03-24T10:19:16.632Z,2.60
2023-03-24T10:34:19.790Z,2.30
2023-03-24T10:49:23.664Z,2.70
2023-03-24T11:04:28.759Z,2.10
2023-03-24T11:19:32.708Z,2.40
2023-03-24T11:34:42.205Z,2.40
2023-03-24T11:49:51.567Z,2.90
2023-03-24T12:05:12.875Z,2.80
2023-03-24T12:20:31.116Z,2.70
2023-03-24T12:36:04.923Z,2.80
2023-03-24T12:51:35.371Z,3.40
2023-03-24T13:06:47.115Z,4.20
2023-03-24T13:21:53.080Z,4.90
2023-03-24T13:37:03.932Z,4.50
2023-03-24T13:52:28.041Z,5.20
2023-03-24T14:07:39.595Z,4.90
2023-03-24T14:22:48.372Z,5.20
2023-03-24T14:37:57.512Z,4.40
2023-03-24T14:53:03.166Z,4.00
2023-03-24T15:08:18.876Z,4.10
2023-03-24T15:23:24.289Z,3.70
2023-03-24T15:38:32.750Z,4.40
2023-03-24T15:53:45.835Z,3.10
2023-03-24T16:08:49.714Z,3.20
2023-03-24T16:23:54.307Z,2.60
2023-03-24T16:38:58.892Z,2.20
2023-03-24T16:54:01.982Z,2.40
2023-03-24T17:09:06.125Z,2.10
2023-03-24T17:24:10.642Z,2.60
2023-03-24T17:39:16.686Z,2.60
2023-03-24T17:54:21.247Z,2.10
2023-03-24T18:09:23.949Z,2.80
2023-03-24T19:09:34.470Z,2.10
2023-03-24T19:24:37.053Z,2.00
2023-03-24T19:54:42.473Z,4.90
2023-03-24T20:24:48.382Z,6.00
2023-03-24T20:39:51.953Z,6.90
2023-03-24T20:54:54.842Z,6.50
2023-03-24T21:09:57.456Z,7.10
2023-03-24T21:25:00.362Z,10.00
2023-03-24T21:55:06.970Z,3.90
2023-03-24T22:10:13.478Z,4.10
2023-03-24T22:25:18.306Z,3.20
2023-03-24T22:40:21.487Z,3.60
2023-03-24T22:55:25.972Z,3.90
2023-03-24T23:10:28.585Z,3.60
2023-03-24T23:25:31.369Z,3.40
